Weather at Forlì Airport

Public forecast

Using degrees Celsius for public forecast. Weather courtesy of forecast.io.

Current aviation weather report (METAR) for Forlì Airport

2024/07/15 15:50 (retrieved 1 hour ago)

LIPK 151550Z 08010KT CAVOK 33/18 Q1011

Aviation forecast (TAF) for Forlì Airport

2024/07/15 12:00 (retrieved 5 hours ago)

TAF LIPK 151100Z 1512/1612 VRB05KT CAVOK BECMG 1512/1514 10010KT BECMG 1517/1519 VRB05KT